sensor_id;sensor_type;location;lat;lon;timestamp;P1;durP1;ratioP1;P2;durP2;ratioP2
2313;SDS011;42279;51.388;7.000;2022-09-09T00:04:44;1.70;;;1.60;;
2313;SDS011;42279;51.388;7.000;2022-09-09T00:07:21;1.90;;;1.63;;
2313;SDS011;42279;51.388;7.000;2022-09-09T00:15:57;1.48;;;1.38;;
2313;SDS011;42279;51.388;7.000;2022-09-09T00:18:46;1.60;;;1.50;;
2313;SDS011;42279;51.388;7.000;2022-09-09T00:21:20;1.50;;;1.40;;
2313;SDS011;42279;51.388;7.000;2022-09-09T00:23:51;2.97;;;1.40;;
2313;SDS011;42279;51.388;7.000;2022-09-09T00:26:34;1.80;;;1.30;;
2313;SDS011;42279;51.388;7.000;2022-09-09T00:29:19;2.45;;;1.50;;
2313;SDS011;42279;51.388;7.000;2022-09-09T00:32:00;1.33;;;1.33;;
2313;SDS011;42279;51.388;7.000;2022-09-09T00:34:33;1.42;;;1.33;;
2313;SDS011;42279;51.388;7.000;2022-09-09T00:37:20;1.77;;;1.70;;
2313;SDS011;42279;51.388;7.000;2022-09-09T00:43:03;1.70;;;1.60;;
2313;SDS011;42279;51.388;7.000;2022-09-09T00:55:15;1.90;;;1.70;;
2313;SDS011;42279;51.388;7.000;2022-09-09T00:57:51;1.55;;;1.45;;
2313;SDS011;42279;51.388;7.000;2022-09-09T03:28:12;3.40;;;3.30;;
2313;SDS011;42279;51.388;7.000;2022-09-09T03:50:18;4.18;;;2.65;;
2313;SDS011;42279;51.388;7.000;2022-09-09T04:43:53;3.17;;;2.90;;
2313;SDS011;42279;51.388;7.000;2022-09-09T04:47:01;3.60;;;3.10;;
2313;SDS011;42279;51.388;7.000;2022-09-09T05:04:29;3.80;;;2.70;;
2313;SDS011;42279;51.388;7.000;2022-09-09T05:06:55;3.00;;;2.80;;
2313;SDS011;42279;51.388;7.000;2022-09-09T05:09:27;4.43;;;3.10;;
2313;SDS011;42279;51.388;7.000;2022-09-09T05:12:10;6.70;;;3.50;;
2313;SDS011;42279;51.388;7.000;2022-09-09T05:23:18;3.35;;;3.00;;
2313;SDS011;42279;51.388;7.000;2022-09-09T05:31:34;4.13;;;3.30;;
2313;SDS011;42279;51.388;7.000;2022-09-09T05:34:01;2.77;;;2.57;;
2313;SDS011;42279;51.388;7.000;2022-09-09T05:36:30;4.95;;;2.60;;
2313;SDS011;42279;51.388;7.000;2022-09-09T05:39:01;3.70;;;3.10;;
2313;SDS011;42279;51.388;7.000;2022-09-09T05:41:27;3.60;;;2.83;;
2313;SDS011;42279;51.388;7.000;2022-09-09T05:43:54;3.80;;;3.50;;
2313;SDS011;42279;51.388;7.000;2022-09-09T05:49:21;3.13;;;2.92;;
2313;SDS011;42279;51.388;7.000;2022-09-09T05:51:57;3.95;;;2.70;;
2313;SDS011;42279;51.388;7.000;2022-09-09T05:54:32;3.50;;;3.20;;
2313;SDS011;42279;51.388;7.000;2022-09-09T05:57:00;6.38;;;3.22;;
2313;SDS011;42279;51.388;7.000;2022-09-09T05:59:26;4.45;;;2.67;;
2313;SDS011;42279;51.388;7.000;2022-09-09T06:02:03;6.95;;;3.35;;
2313;SDS011;42279;51.388;7.000;2022-09-09T06:04:35;3.30;;;2.90;;
2313;SDS011;42279;51.388;7.000;2022-09-09T06:07:10;3.47;;;2.88;;
2313;SDS011;42279;51.388;7.000;2022-09-09T06:09:38;3.35;;;2.90;;
2313;SDS011;42279;51.388;7.000;2022-09-09T06:12:06;3.05;;;2.60;;
2313;SDS011;42279;51.388;7.000;2022-09-09T06:14:35;3.60;;;2.50;;
2313;SDS011;42279;51.388;7.000;2022-09-09T06:17:05;3.33;;;2.60;;
2313;SDS011;42279;51.388;7.000;2022-09-09T06:19:31;2.65;;;2.55;;
2313;SDS011;42279;51.388;7.000;2022-09-09T06:22:00;4.78;;;2.72;;
2313;SDS011;42279;51.388;7.000;2022-09-09T06:24:31;3.65;;;2.45;;
2313;SDS011;42279;51.388;7.000;2022-09-09T06:35:54;4.60;;;2.50;;
2313;SDS011;42279;51.388;7.000;2022-09-09T06:38:22;2.40;;;2.20;;
2313;SDS011;42279;51.388;7.000;2022-09-09T06:40:53;2.10;;;2.00;;
2313;SDS011;42279;51.388;7.000;2022-09-09T06:43:23;2.80;;;2.40;;
2313;SDS011;42279;51.388;7.000;2022-09-09T06:46:21;2.40;;;2.30;;
2313;SDS011;42279;51.388;7.000;2022-09-09T06:48:47;3.65;;;2.15;;
2313;SDS011;42279;51.388;7.000;2022-09-09T06:53:53;3.03;;;2.00;;
2313;SDS011;42279;51.388;7.000;2022-09-09T06:56:32;2.40;;;2.20;;
2313;SDS011;42279;51.388;7.000;2022-09-09T07:01:33;2.40;;;2.00;;
2313;SDS011;42279;51.388;7.000;2022-09-09T07:06:44;2.50;;;2.10;;
2313;SDS011;42279;51.388;7.000;2022-09-09T07:09:12;2.00;;;1.90;;
2313;SDS011;42279;51.388;7.000;2022-09-09T07:11:39;1.95;;;1.75;;
2313;SDS011;42279;51.388;7.000;2022-09-09T07:32:29;3.70;;;2.10;;
2313;SDS011;42279;51.388;7.000;2022-09-09T07:34:55;2.60;;;2.30;;
2313;SDS011;42279;51.388;7.000;2022-09-09T07:40:06;3.75;;;1.90;;
2313;SDS011;42279;51.388;7.000;2022-09-09T07:42:46;2.85;;;1.70;;
2313;SDS011;42279;51.388;7.000;2022-09-09T07:45:15;2.13;;;1.90;;
2313;SDS011;42279;51.388;7.000;2022-09-09T07:47:41;1.80;;;1.70;;
2313;SDS011;42279;51.388;7.000;2022-09-09T07:50:13;2.10;;;1.73;;
2313;SDS011;42279;51.388;7.000;2022-09-09T07:55:40;2.17;;;1.98;;
2313;SDS011;42279;51.388;7.000;2022-09-09T07:58:06;4.40;;;2.20;;
2313;SDS011;42279;51.388;7.000;2022-09-09T08:00:35;3.22;;;2.00;;
2313;SDS011;42279;51.388;7.000;2022-09-09T08:03:01;1.95;;;1.80;;
2313;SDS011;42279;51.388;7.000;2022-09-09T08:05:28;2.05;;;1.95;;
2313;SDS011;42279;51.388;7.000;2022-09-09T08:07:54;2.30;;;2.10;;
2313;SDS011;42279;51.388;7.000;2022-09-09T08:10:20;2.23;;;2.03;;
2313;SDS011;42279;51.388;7.000;2022-09-09T08:12:46;2.38;;;2.10;;
2313;SDS011;42279;51.388;7.000;2022-09-09T08:15:14;5.90;;;3.85;;
2313;SDS011;42279;51.388;7.000;2022-09-09T08:17:39;2.17;;;2.08;;
2313;SDS011;42279;51.388;7.000;2022-09-09T08:20:05;2.17;;;1.90;;
2313;SDS011;42279;51.388;7.000;2022-09-09T08:22:31;3.20;;;1.70;;
2313;SDS011;42279;51.388;7.000;2022-09-09T08:24:59;2.28;;;1.88;;
2313;SDS011;42279;51.388;7.000;2022-09-09T08:27:25;1.60;;;1.50;;
2313;SDS011;42279;51.388;7.000;2022-09-09T08:29:51;3.40;;;1.70;;
2313;SDS011;42279;51.388;7.000;2022-09-09T08:32:18;2.45;;;2.33;;
2313;SDS011;42279;51.388;7.000;2022-09-09T08:34:48;1.90;;;1.80;;
2313;SDS011;42279;51.388;7.000;2022-09-09T08:37:35;1.80;;;1.70;;
2313;SDS011;42279;51.388;7.000;2022-09-09T08:40:05;2.40;;;1.90;;
2313;SDS011;42279;51.388;7.000;2022-09-09T08:42:40;3.83;;;1.80;;
2313;SDS011;42279;51.388;7.000;2022-09-09T08:53:26;1.60;;;1.50;;
2313;SDS011;42279;51.388;7.000;2022-09-09T08:56:18;3.72;;;1.92;;
2313;SDS011;42279;51.388;7.000;2022-09-09T08:58:48;3.15;;;1.60;;
2313;SDS011;42279;51.388;7.000;2022-09-09T09:06:53;1.90;;;1.60;;
2313;SDS011;42279;51.388;7.000;2022-09-09T09:13:20;1.30;;;1.30;;
2313;SDS011;42279;51.388;7.000;2022-09-09T09:15:14;1.50;;;1.40;;
2313;SDS011;42279;51.388;7.000;2022-09-09T09:26:59;3.42;;;1.55;;
2313;SDS011;42279;51.388;7.000;2022-09-09T09:29:27;1.60;;;1.50;;
2313;SDS011;42279;51.388;7.000;2022-09-09T09:32:19;1.95;;;1.48;;
2313;SDS011;42279;51.388;7.000;2022-09-09T09:34:56;1.40;;;1.30;;
2313;SDS011;42279;51.388;7.000;2022-09-09T09:37:29;3.15;;;1.60;;
2313;SDS011;42279;51.388;7.000;2022-09-09T09:43:16;2.25;;;1.55;;
2313;SDS011;42279;51.388;7.000;2022-09-09T10:40:42;1.30;;;1.20;;
2313;SDS011;42279;51.388;7.000;2022-09-09T10:56:28;1.92;;;1.20;;
2313;SDS011;42279;51.388;7.000;2022-09-09T10:59:07;2.10;;;1.30;;
2313;SDS011;42279;51.388;7.000;2022-09-09T11:01:47;1.13;;;1.10;;
2313;SDS011;42279;51.388;7.000;2022-09-09T11:04:34;2.55;;;1.50;;
2313;SDS011;42279;51.388;7.000;2022-09-09T11:07:07;1.33;;;1.20;;
2313;SDS011;42279;51.388;7.000;2022-09-09T11:15:16;2.08;;;1.10;;
2313;SDS011;42279;51.388;7.000;2022-09-09T11:17:44;1.40;;;0.95;;
2313;SDS011;42279;51.388;7.000;2022-09-09T11:20:29;1.60;;;1.50;;
2313;SDS011;42279;51.388;7.000;2022-09-09T11:40:45;1.10;;;0.90;;
2313;SDS011;42279;51.388;7.000;2022-09-09T11:43:17;1.00;;;1.00;;
2313;SDS011;42279;51.388;7.000;2022-09-09T11:46:01;2.10;;;1.30;;
2313;SDS011;42279;51.388;7.000;2022-09-09T11:48:58;2.20;;;1.10;;
2313;SDS011;42279;51.388;7.000;2022-09-09T11:51:32;1.30;;;1.20;;
2313;SDS011;42279;51.388;7.000;2022-09-09T11:57:16;1.40;;;1.40;;
2313;SDS011;42279;51.388;7.000;2022-09-09T11:59:52;1.20;;;1.20;;
2313;SDS011;42279;51.388;7.000;2022-09-09T12:02:32;3.28;;;1.90;;
2313;SDS011;42279;51.388;7.000;2022-09-09T12:05:19;1.40;;;1.30;;
2313;SDS011;42279;51.388;7.000;2022-09-09T12:07:59;1.00;;;1.00;;
2313;SDS011;42279;51.388;7.000;2022-09-09T12:10:52;2.90;;;1.08;;
2313;SDS011;42279;51.388;7.000;2022-09-09T12:13:29;1.13;;;1.13;;
2313;SDS011;42279;51.388;7.000;2022-09-09T12:15:57;1.70;;;1.30;;
2313;SDS011;42279;51.388;7.000;2022-09-09T12:21:44;1.83;;;1.38;;
2313;SDS011;42279;51.388;7.000;2022-09-09T12:24:20;1.67;;;1.60;;
2313;SDS011;42279;51.388;7.000;2022-09-09T12:30:11;2.25;;;1.30;;
2313;SDS011;42279;51.388;7.000;2022-09-09T12:36:15;1.50;;;1.40;;
2313;SDS011;42279;51.388;7.000;2022-09-09T12:39:10;1.48;;;1.33;;
2313;SDS011;42279;51.388;7.000;2022-09-09T12:41:50;1.27;;;1.17;;
2313;SDS011;42279;51.388;7.000;2022-09-09T12:44:26;1.20;;;1.20;;
2313;SDS011;42279;51.388;7.000;2022-09-09T12:47:38;4.60;;;1.38;;
2313;SDS011;42279;51.388;7.000;2022-09-09T12:50:14;1.10;;;1.10;;
2313;SDS011;42279;51.388;7.000;2022-09-09T12:55:20;2.20;;;1.10;;
2313;SDS011;42279;51.388;7.000;2022-09-09T13:19:14;1.30;;;1.30;;
2313;SDS011;42279;51.388;7.000;2022-09-09T13:29:50;1.70;;;1.60;;
2313;SDS011;42279;51.388;7.000;2022-09-09T13:32:19;2.22;;;1.05;;
2313;SDS011;42279;51.388;7.000;2022-09-09T13:34:59;1.75;;;1.40;;
2313;SDS011;42279;51.388;7.000;2022-09-09T13:40:17;1.60;;;1.50;;
2313;SDS011;42279;51.388;7.000;2022-09-09T13:42:55;1.88;;;1.77;;
2313;SDS011;42279;51.388;7.000;2022-09-09T13:45:28;2.40;;;2.00;;
2313;SDS011;42279;51.388;7.000;2022-09-09T13:48:08;3.13;;;1.80;;
2313;SDS011;42279;51.388;7.000;2022-09-09T13:50:38;4.20;;;2.35;;
2313;SDS011;42279;51.388;7.000;2022-09-09T13:53:06;2.15;;;2.05;;
2313;SDS011;42279;51.388;7.000;2022-09-09T13:55:36;4.50;;;2.50;;
2313;SDS011;42279;51.388;7.000;2022-09-09T13:58:22;3.15;;;2.30;;
2313;SDS011;42279;51.388;7.000;2022-09-09T14:01:00;6.05;;;2.50;;
2313;SDS011;42279;51.388;7.000;2022-09-09T14:03:42;2.63;;;2.25;;
2313;SDS011;42279;51.388;7.000;2022-09-09T14:08:39;2.58;;;2.30;;
2313;SDS011;42279;51.388;7.000;2022-09-09T14:11:11;3.55;;;2.10;;
2313;SDS011;42279;51.388;7.000;2022-09-09T14:13:41;3.58;;;2.33;;
2313;SDS011;42279;51.388;7.000;2022-09-09T14:16:24;4.13;;;2.60;;
2313;SDS011;42279;51.388;7.000;2022-09-09T14:18:53;4.05;;;2.08;;
2313;SDS011;42279;51.388;7.000;2022-09-09T14:21:29;2.20;;;1.80;;
2313;SDS011;42279;51.388;7.000;2022-09-09T14:23:55;3.67;;;2.30;;
2313;SDS011;42279;51.388;7.000;2022-09-09T14:26:39;2.38;;;2.17;;
2313;SDS011;42279;51.388;7.000;2022-09-09T14:29:08;2.70;;;2.03;;
2313;SDS011;42279;51.388;7.000;2022-09-09T14:31:34;2.28;;;2.10;;
2313;SDS011;42279;51.388;7.000;2022-09-09T14:34:00;2.97;;;2.40;;
2313;SDS011;42279;51.388;7.000;2022-09-09T14:39:05;2.10;;;2.00;;
2313;SDS011;42279;51.388;7.000;2022-09-09T14:42:06;2.17;;;2.08;;
2313;SDS011;42279;51.388;7.000;2022-09-09T14:44:34;1.85;;;1.70;;
2313;SDS011;42279;51.388;7.000;2022-09-09T14:55:00;2.97;;;1.50;;
2313;SDS011;42279;51.388;7.000;2022-09-09T15:14:30;0.90;;;0.90;;
2313;SDS011;42279;51.388;7.000;2022-09-09T16:00:41;1.10;;;1.00;;
2313;SDS011;42279;51.388;7.000;2022-09-09T16:03:25;2.60;;;0.93;;
2313;SDS011;42279;51.388;7.000;2022-09-09T16:11:37;1.20;;;1.20;;
2313;SDS011;42279;51.388;7.000;2022-09-09T16:32:44;1.60;;;1.50;;
2313;SDS011;42279;51.388;7.000;2022-09-09T16:38:37;1.70;;;1.70;;
2313;SDS011;42279;51.388;7.000;2022-09-09T16:41:32;1.90;;;1.80;;
2313;SDS011;42279;51.388;7.000;2022-09-09T16:44:00;1.90;;;1.80;;
2313;SDS011;42279;51.388;7.000;2022-09-09T16:49:03;1.70;;;1.60;;
2313;SDS011;42279;51.388;7.000;2022-09-09T16:51:35;1.70;;;1.60;;
2313;SDS011;42279;51.388;7.000;2022-09-09T16:54:02;1.70;;;1.60;;
2313;SDS011;42279;51.388;7.000;2022-09-09T16:56:30;2.10;;;2.00;;
2313;SDS011;42279;51.388;7.000;2022-09-09T16:59:02;1.85;;;1.80;;
2313;SDS011;42279;51.388;7.000;2022-09-09T17:01:30;2.10;;;2.00;;
2313;SDS011;42279;51.388;7.000;2022-09-09T17:03:59;2.00;;;1.90;;
2313;SDS011;42279;51.388;7.000;2022-09-09T17:06:28;2.10;;;2.00;;
2313;SDS011;42279;51.388;7.000;2022-09-09T17:08:55;2.65;;;2.00;;
2313;SDS011;42279;51.388;7.000;2022-09-09T17:11:22;2.20;;;2.10;;
2313;SDS011;42279;51.388;7.000;2022-09-09T17:13:48;2.10;;;2.00;;
2313;SDS011;42279;51.388;7.000;2022-09-09T17:16:16;2.78;;;2.10;;
2313;SDS011;42279;51.388;7.000;2022-09-09T17:18:42;2.22;;;2.13;;
2313;SDS011;42279;51.388;7.000;2022-09-09T17:21:09;2.60;;;2.40;;
2313;SDS011;42279;51.388;7.000;2022-09-09T17:23:37;2.95;;;2.60;;
2313;SDS011;42279;51.388;7.000;2022-09-09T17:26:04;2.40;;;2.20;;
2313;SDS011;42279;51.388;7.000;2022-09-09T17:28:32;2.30;;;2.20;;
2313;SDS011;42279;51.388;7.000;2022-09-09T17:30:59;2.13;;;2.03;;
2313;SDS011;42279;51.388;7.000;2022-09-09T17:33:33;3.75;;;2.55;;
2313;SDS011;42279;51.388;7.000;2022-09-09T17:36:00;2.50;;;2.30;;
2313;SDS011;42279;51.388;7.000;2022-09-09T17:38:27;2.28;;;2.20;;
2313;SDS011;42279;51.388;7.000;2022-09-09T17:41:02;3.22;;;2.40;;
2313;SDS011;42279;51.388;7.000;2022-09-09T17:43:46;4.15;;;2.67;;
2313;SDS011;42279;51.388;7.000;2022-09-09T17:46:34;2.30;;;2.20;;
2313;SDS011;42279;51.388;7.000;2022-09-09T17:52:09;2.30;;;2.20;;
2313;SDS011;42279;51.388;7.000;2022-09-09T17:54:35;2.50;;;2.42;;
2313;SDS011;42279;51.388;7.000;2022-09-09T17:57:01;3.60;;;2.50;;
2313;SDS011;42279;51.388;7.000;2022-09-09T17:59:28;3.50;;;3.20;;
2313;SDS011;42279;51.388;7.000;2022-09-09T18:33:12;2.40;;;2.30;;
2313;SDS011;42279;51.388;7.000;2022-09-09T18:44:17;2.70;;;2.50;;
2313;SDS011;42279;51.388;7.000;2022-09-09T18:47:13;3.95;;;3.65;;
2313;SDS011;42279;51.388;7.000;2022-09-09T18:50:06;3.40;;;3.20;;
2313;SDS011;42279;51.388;7.000;2022-09-09T19:17:25;3.10;;;3.00;;
2313;SDS011;42279;51.388;7.000;2022-09-09T19:19:58;4.07;;;3.88;;
2313;SDS011;42279;51.388;7.000;2022-09-09T19:31:13;3.53;;;3.33;;
2313;SDS011;42279;51.388;7.000;2022-09-09T19:44:50;3.30;;;3.10;;
2313;SDS011;42279;51.388;7.000;2022-09-09T19:50:21;3.55;;;3.30;;
2313;SDS011;42279;51.388;7.000;2022-09-09T20:01:28;2.97;;;2.80;;
2313;SDS011;42279;51.388;7.000;2022-09-09T20:36:46;3.30;;;2.70;;
2313;SDS011;42279;51.388;7.000;2022-09-09T21:38:55;3.25;;;2.10;;
2313;SDS011;42279;51.388;7.000;2022-09-09T21:44:34;5.22;;;2.30;;
2313;SDS011;42279;51.388;7.000;2022-09-09T21:47:11;2.70;;;2.40;;
2313;SDS011;42279;51.388;7.000;2022-09-09T21:49:45;3.75;;;2.72;;
2313;SDS011;42279;51.388;7.000;2022-09-09T21:55:36;2.55;;;2.45;;
2313;SDS011;42279;51.388;7.000;2022-09-09T21:58:14;2.88;;;2.67;;
2313;SDS011;42279;51.388;7.000;2022-09-09T22:07:12;4.15;;;2.50;;
2313;SDS011;42279;51.388;7.000;2022-09-09T22:09:53;3.00;;;2.45;;
2313;SDS011;42279;51.388;7.000;2022-09-09T22:23:24;2.70;;;2.50;;
2313;SDS011;42279;51.388;7.000;2022-09-09T22:25:50;5.20;;;2.42;;
2313;SDS011;42279;51.388;7.000;2022-09-09T22:28:18;2.80;;;2.30;;
2313;SDS011;42279;51.388;7.000;2022-09-09T22:31:23;2.53;;;2.33;;
2313;SDS011;42279;51.388;7.000;2022-09-09T22:33:59;2.13;;;2.13;;
2313;SDS011;42279;51.388;7.000;2022-09-09T22:36:27;3.08;;;2.60;;
2313;SDS011;42279;51.388;7.000;2022-09-09T22:41:45;2.70;;;2.50;;
2313;SDS011;42279;51.388;7.000;2022-09-09T22:44:16;2.50;;;2.15;;
2313;SDS011;42279;51.388;7.000;2022-09-09T22:46:46;2.80;;;2.60;;
2313;SDS011;42279;51.388;7.000;2022-09-09T22:49:12;2.65;;;2.33;;
2313;SDS011;42279;51.388;7.000;2022-09-09T22:51:38;3.20;;;2.90;;
2313;SDS011;42279;51.388;7.000;2022-09-09T22:54:10;4.28;;;2.38;;
2313;SDS011;42279;51.388;7.000;2022-09-09T22:56:37;4.30;;;3.13;;
2313;SDS011;42279;51.388;7.000;2022-09-09T22:59:13;2.90;;;2.80;;
2313;SDS011;42279;51.388;7.000;2022-09-09T23:01:52;2.60;;;2.50;;
2313;SDS011;42279;51.388;7.000;2022-09-09T23:04:38;3.15;;;2.70;;
2313;SDS011;42279;51.388;7.000;2022-09-09T23:07:12;2.63;;;2.53;;
2313;SDS011;42279;51.388;7.000;2022-09-09T23:09:51;3.58;;;2.70;;
2313;SDS011;42279;51.388;7.000;2022-09-09T23:12:19;3.42;;;3.13;;
2313;SDS011;42279;51.388;7.000;2022-09-09T23:14:51;2.60;;;2.40;;
2313;SDS011;42279;51.388;7.000;2022-09-09T23:17:25;5.60;;;2.60;;
2313;SDS011;42279;51.388;7.000;2022-09-09T23:19:51;2.90;;;2.70;;
2313;SDS011;42279;51.388;7.000;2022-09-09T23:22:20;2.55;;;2.45;;
2313;SDS011;42279;51.388;7.000;2022-09-09T23:24:47;2.95;;;2.60;;
2313;SDS011;42279;51.388;7.000;2022-09-09T23:27:20;3.67;;;2.40;;
2313;SDS011;42279;51.388;7.000;2022-09-09T23:29:49;2.60;;;2.40;;
2313;SDS011;42279;51.388;7.000;2022-09-09T23:32:17;3.70;;;2.60;;
2313;SDS011;42279;51.388;7.000;2022-09-09T23:34:46;2.50;;;2.30;;
2313;SDS011;42279;51.388;7.000;2022-09-09T23:37:25;2.70;;;2.60;;
2313;SDS011;42279;51.388;7.000;2022-09-09T23:39:51;2.55;;;2.35;;
2313;SDS011;42279;51.388;7.000;2022-09-09T23:42:24;2.67;;;2.42;;
2313;SDS011;42279;51.388;7.000;2022-09-09T23:45:00;2.50;;;2.40;;
2313;SDS011;42279;51.388;7.000;2022-09-09T23:47:29;3.58;;;3.10;;
2313;SDS011;42279;51.388;7.000;2022-09-09T23:49:55;4.03;;;2.50;;
2313;SDS011;42279;51.388;7.000;2022-09-09T23:55:14;3.10;;;2.50;;
2313;SDS011;42279;51.388;7.000;2022-09-09T23:58:02;2.70;;;2.20;;
